createdAt,value
2018-10-17T00:02:07.023Z,98.80
2018-10-17T00:07:10.732Z,98.90
2018-10-17T00:12:14.342Z,98.80
2018-10-17T00:17:17.962Z,99.00
2018-10-17T00:22:21.583Z,99.20
2018-10-17T00:27:25.319Z,99.20
2018-10-17T00:32:28.965Z,99.10
2018-10-17T00:37:32.596Z,99.20
2018-10-17T00:42:36.704Z,99.40
2018-10-17T00:47:40.418Z,99.90
2018-10-17T00:52:44.074Z,99.70
2018-10-17T00:57:47.707Z,99.90
2018-10-17T01:02:51.361Z,99.90
2018-10-17T01:07:54.970Z,99.90
2018-10-17T01:12:58.601Z,99.90
2018-10-17T01:18:02.218Z,99.70
2018-10-17T01:23:06.000Z,99.80
2018-10-17T01:28:09.548Z,99.90
2018-10-17T01:33:13.165Z,99.90
2018-10-17T01:38:16.887Z,99.90
2018-10-17T01:43:20.571Z,99.90
2018-10-17T01:48:24.236Z,99.90
2018-10-17T01:53:27.862Z,99.90
2018-10-17T01:58:31.515Z,99.90
2018-10-17T02:03:35.153Z,99.90
2018-10-17T02:08:39.056Z,99.90
2018-10-17T02:13:42.703Z,99.90
2018-10-17T02:18:46.319Z,99.90
2018-10-17T02:23:49.929Z,99.90
2018-10-17T02:28:53.582Z,99.90
2018-10-17T02:33:57.198Z,99.90
2018-10-17T02:39:00.823Z,99.90
2018-10-17T02:44:05.762Z,99.90
2018-10-17T02:49:09.467Z,99.90
2018-10-17T02:54:13.037Z,99.90
2018-10-17T02:59:16.720Z,99.90
2018-10-17T03:04:20.443Z,99.90
2018-10-17T03:09:24.163Z,99.90
2018-10-17T03:14:28.374Z,99.90
2018-10-17T03:19:32.000Z,99.90
2018-10-17T03:24:35.751Z,99.90
2018-10-17T03:29:39.385Z,99.90
2018-10-17T03:34:43.039Z,99.90
2018-10-17T03:39:46.774Z,99.90
2018-10-17T03:44:50.496Z,99.90
2018-10-17T03:49:54.127Z,99.90
2018-10-17T03:54:57.785Z,99.90
2018-10-17T04:00:01.473Z,99.90
2018-10-17T04:05:06.008Z,99.90
2018-10-17T04:10:09.573Z,99.90
2018-10-17T04:15:13.336Z,99.90
2018-10-17T04:20:16.967Z,99.90
2018-10-17T04:25:20.681Z,99.90
2018-10-17T04:30:24.795Z,99.90
2018-10-17T04:35:28.427Z,99.90
2018-10-17T04:40:32.067Z,99.90
2018-10-17T04:45:35.726Z,99.90
2018-10-17T04:50:39.350Z,99.90
2018-10-17T04:55:43.143Z,99.90
2018-10-17T05:00:46.762Z,99.90
2018-10-17T05:05:50.510Z,99.90
2018-10-17T05:10:54.250Z,99.90
2018-10-17T05:15:57.975Z,99.90
2018-10-17T05:21:02.780Z,99.90
2018-10-17T05:26:07.352Z,99.90
2018-10-17T05:31:11.234Z,99.90
2018-10-17T05:36:17.065Z,99.90
2018-10-17T05:41:22.091Z,99.90
2018-10-17T05:46:25.764Z,99.90
2018-10-17T05:51:29.396Z,99.90
2018-10-17T05:56:33.879Z,99.90
2018-10-17T06:01:37.974Z,99.90
2018-10-17T06:06:41.604Z,99.90
2018-10-17T06:11:45.228Z,99.90
2018-10-17T06:16:48.875Z,99.90
2018-10-17T06:21:52.487Z,99.90
2018-10-17T06:26:56.175Z,99.90
2018-10-17T06:32:00.458Z,99.90
2018-10-17T06:37:06.178Z,99.90
2018-10-17T06:42:10.053Z,99.90
2018-10-17T06:47:13.858Z,99.90
2018-10-17T06:52:18.556Z,99.90
2018-10-17T06:57:23.257Z,99.90
2018-10-17T07:02:27.491Z,99.90
2018-10-17T07:07:31.138Z,99.90
2018-10-17T07:12:34.790Z,99.90
2018-10-17T07:17:40.586Z,99.90
2018-10-17T07:22:46.563Z,99.90
2018-10-17T07:27:52.740Z,99.90
2018-10-17T07:32:58.548Z,99.90
2018-10-17T07:38:04.249Z,99.90
2018-10-17T07:43:10.062Z,99.90
2018-10-17T07:48:15.685Z,99.90
2018-10-17T07:53:22.727Z,99.90
2018-10-17T07:58:26.991Z,99.90
2018-10-17T08:03:30.707Z,99.90
2018-10-17T08:08:34.342Z,99.90
2018-10-17T08:13:38.038Z,99.90
2018-10-17T08:18:41.666Z,99.20
2018-10-17T08:23:45.283Z,99.20
2018-10-17T08:28:49.089Z,98.10
2018-10-17T08:33:53.148Z,96.70
2018-10-17T08:38:56.967Z,96.50
2018-10-17T08:44:00.624Z,95.00
2018-10-17T08:49:04.248Z,95.10
2018-10-17T08:54:07.908Z,95.40
2018-10-17T08:59:11.640Z,94.20
2018-10-17T09:04:15.343Z,94.00
2018-10-17T09:09:19.057Z,94.20
2018-10-17T09:14:22.687Z,93.50
2018-10-17T09:19:26.406Z,92.90
2018-10-17T09:24:30.024Z,92.10
2018-10-17T09:29:33.669Z,92.70
2018-10-17T09:34:37.372Z,92.40
2018-10-17T09:39:41.040Z,92.50
2018-10-17T09:44:44.735Z,90.80
2018-10-17T09:49:48.377Z,90.20
2018-10-17T09:54:52.010Z,88.30
2018-10-17T09:59:55.760Z,86.70
2018-10-17T10:04:59.343Z,86.10
2018-10-17T10:10:02.992Z,82.90
2018-10-17T10:15:06.636Z,79.90
2018-10-17T10:20:10.282Z,78.70
2018-10-17T10:25:13.955Z,78.70
2018-10-17T10:30:17.570Z,75.10
2018-10-17T10:35:21.143Z,67.90
2018-10-17T10:40:24.827Z,66.70
2018-10-17T10:45:28.468Z,66.20
2018-10-17T10:50:32.065Z,65.70
2018-10-17T10:55:35.714Z,65.20
2018-10-17T11:00:39.359Z,60.90
2018-10-17T11:05:43.262Z,57.80
2018-10-17T11:10:46.667Z,57.60
2018-10-17T11:15:50.302Z,57.40
2018-10-17T11:20:54.015Z,54.80
2018-10-17T11:25:57.630Z,54.80
2018-10-17T11:31:01.280Z,51.10
2018-10-17T11:36:05.026Z,50.20
2018-10-17T11:41:08.712Z,49.90
2018-10-17T11:46:12.442Z,47.00
2018-10-17T11:51:16.303Z,45.20
2018-10-17T11:56:20.072Z,42.00
2018-10-17T12:01:23.784Z,43.00
2018-10-17T12:06:32.356Z,42.50
2018-10-17T12:11:35.894Z,44.50
2018-10-17T12:16:39.522Z,45.30
2018-10-17T12:21:43.131Z,48.30
2018-10-17T12:26:46.888Z,50.60
2018-10-17T12:31:50.567Z,50.80
2018-10-17T12:36:54.314Z,51.10
2018-10-17T12:41:57.984Z,52.30
2018-10-17T12:47:01.622Z,53.50
2018-10-17T12:52:05.482Z,54.70
2018-10-17T12:57:09.211Z,55.50
2018-10-17T13:02:12.839Z,55.80
2018-10-17T13:07:16.526Z,55.50
2018-10-17T13:12:20.167Z,55.60
2018-10-17T13:17:25.007Z,55.40
2018-10-17T13:22:28.650Z,55.70
2018-10-17T13:27:32.306Z,55.90
2018-10-17T13:32:36.767Z,56.10
2018-10-17T13:37:40.412Z,56.20
2018-10-17T13:42:44.202Z,57.50
2018-10-17T13:47:47.869Z,56.70
2018-10-17T13:52:51.570Z,56.70
2018-10-17T13:57:55.273Z,56.20
2018-10-17T14:02:58.838Z,56.00
2018-10-17T14:08:02.524Z,57.40
2018-10-17T14:13:06.171Z,57.50
2018-10-17T14:18:09.826Z,57.40
2018-10-17T14:23:13.524Z,57.30
2018-10-17T14:28:17.127Z,57.60
2018-10-17T14:33:21.491Z,57.70
2018-10-17T14:38:25.571Z,57.50
2018-10-17T14:43:29.269Z,57.20
2018-10-17T14:48:32.960Z,56.20
2018-10-17T14:53:37.215Z,56.50
2018-10-17T14:58:40.874Z,57.60
2018-10-17T15:03:45.554Z,58.10
2018-10-17T15:08:49.271Z,58.30
2018-10-17T15:13:53.665Z,57.80
2018-10-17T15:18:57.794Z,56.60
2018-10-17T15:24:01.735Z,55.80
2018-10-17T15:29:07.050Z,56.20
2018-10-17T15:34:11.930Z,56.80
2018-10-17T15:39:15.590Z,56.90
2018-10-17T15:44:19.182Z,58.40
2018-10-17T15:49:22.793Z,60.80
2018-10-17T15:54:26.506Z,63.60
2018-10-17T15:59:31.007Z,65.90
2018-10-17T16:04:34.678Z,68.00
2018-10-17T16:09:38.294Z,70.30
2018-10-17T16:14:42.071Z,71.80
2018-10-17T16:19:45.713Z,73.50
2018-10-17T16:24:49.743Z,74.40
2018-10-17T16:29:53.997Z,75.90
2018-10-17T16:34:57.675Z,77.90
2018-10-17T16:40:01.359Z,78.70
2018-10-17T16:45:06.013Z,80.50
2018-10-17T16:50:09.760Z,81.90
2018-10-17T16:55:13.392Z,83.60
2018-10-17T17:00:17.208Z,85.10
2018-10-17T17:05:21.769Z,86.20
2018-10-17T17:10:25.484Z,88.20
2018-10-17T17:15:29.242Z,89.60
2018-10-17T17:20:32.855Z,90.50
2018-10-17T17:25:36.559Z,91.00
2018-10-17T17:30:40.384Z,91.50
2018-10-17T17:35:44.887Z,91.90
2018-10-17T17:40:48.528Z,92.30
2018-10-17T17:45:52.302Z,92.80
2018-10-17T17:50:56.023Z,93.20
2018-10-17T17:55:59.706Z,93.80
2018-10-17T18:01:03.367Z,94.10
2018-10-17T18:06:07.164Z,94.30
2018-10-17T18:11:19.134Z,94.80
2018-10-17T18:16:22.773Z,94.90
2018-10-17T18:21:26.422Z,95.30
2018-10-17T18:26:30.412Z,95.50
2018-10-17T18:31:34.419Z,95.60
2018-10-17T18:36:38.165Z,95.90
2018-10-17T18:41:42.972Z,95.90
2018-10-17T18:46:46.708Z,96.10
2018-10-17T18:51:50.324Z,96.20
2018-10-17T18:56:53.999Z,96.50
2018-10-17T19:01:57.614Z,96.70
2018-10-17T19:07:01.514Z,96.80
2018-10-17T19:12:06.528Z,97.10
2018-10-17T19:17:10.476Z,97.20
2018-10-17T19:22:14.123Z,97.30
2018-10-17T19:27:17.768Z,97.40
2018-10-17T19:32:21.436Z,97.60
2018-10-17T19:37:25.077Z,97.60
2018-10-17T19:42:28.959Z,97.80
2018-10-17T19:47:32.601Z,97.90
2018-10-17T19:52:36.295Z,98.00
2018-10-17T19:57:40.060Z,98.40
2018-10-17T20:02:43.987Z,98.40
2018-10-17T20:07:47.766Z,98.70
2018-10-17T20:12:51.348Z,98.80
2018-10-17T20:17:56.651Z,98.90
2018-10-17T20:23:00.533Z,99.20
2018-10-17T20:28:04.284Z,99.30
2018-10-17T20:33:08.420Z,99.30
2018-10-17T20:38:12.252Z,99.60
2018-10-17T20:43:15.976Z,99.60
2018-10-17T20:48:19.751Z,99.70
2018-10-17T20:53:23.633Z,99.70
2018-10-17T20:58:27.376Z,99.90
2018-10-17T21:03:30.935Z,99.90
2018-10-17T21:08:34.561Z,99.90
2018-10-17T21:13:38.246Z,99.90
2018-10-17T21:18:41.944Z,99.90
2018-10-17T21:23:45.519Z,99.90
2018-10-17T21:28:49.141Z,99.90
2018-10-17T21:33:52.839Z,99.90
2018-10-17T21:38:56.483Z,99.90
2018-10-17T21:44:00.206Z,99.90
2018-10-17T21:49:03.813Z,99.90
2018-10-17T21:54:07.618Z,99.90
2018-10-17T21:59:11.236Z,99.90
2018-10-17T22:04:14.853Z,99.90
2018-10-17T22:09:18.474Z,99.90
2018-10-17T22:14:22.083Z,99.90
2018-10-17T22:19:26.021Z,99.90
2018-10-17T22:24:29.545Z,99.90
2018-10-17T22:29:33.196Z,99.90
2018-10-17T22:34:36.891Z,99.90
2018-10-17T22:39:40.539Z,99.90
2018-10-17T22:44:44.198Z,99.90
2018-10-17T22:49:47.864Z,99.90
2018-10-17T22:54:51.502Z,99.90
2018-10-17T22:59:55.191Z,99.90
2018-10-17T23:04:58.862Z,99.90
2018-10-17T23:10:02.595Z,99.90
2018-10-17T23:15:10.029Z,99.90
2018-10-17T23:20:13.716Z,99.90
2018-10-17T23:25:17.259Z,99.90
2018-10-17T23:30:20.963Z,99.90
2018-10-17T23:35:24.727Z,99.90
2018-10-17T23:40:28.346Z,99.90
2018-10-17T23:45:32.132Z,99.90
2018-10-17T23:50:36.169Z,99.90
2018-10-17T23:55:39.863Z,99.90
